createdAt,value
2022-12-31T00:03:31.058Z,13.34
2022-12-31T00:08:55.370Z,12.25
2022-12-31T00:14:19.350Z,13.23
2022-12-31T00:19:43.446Z,13.72
2022-12-31T00:25:08.068Z,12.55
2022-12-31T00:30:32.071Z,12.85
2022-12-31T00:35:56.420Z,13.62
2022-12-31T00:41:20.391Z,12.34
2022-12-31T00:52:07.740Z,13.56
2022-12-31T00:57:32.461Z,12.45
2022-12-31T01:02:55.815Z,12.18
2022-12-31T01:08:19.990Z,13.45
2022-12-31T01:13:44.605Z,12.91
2022-12-31T01:19:09.946Z,12.22
2022-12-31T01:24:34.003Z,13.39
2022-12-31T01:29:58.562Z,13.21
2022-12-31T01:35:22.564Z,12.09
2022-12-31T01:40:46.453Z,13.31
2022-12-31T01:46:10.793Z,13.76
2022-12-31T01:51:35.391Z,12.33
2022-12-31T01:56:59.417Z,12.55
2022-12-31T02:02:23.722Z,13.63
2022-12-31T02:07:47.654Z,13.31
2022-12-31T02:13:10.950Z,12.44
2022-12-31T02:18:49.996Z,13.53
2022-12-31T02:24:16.358Z,13.84
2022-12-31T02:30:06.810Z,12.98
2022-12-31T02:35:49.803Z,12.70
2022-12-31T02:41:34.450Z,13.77
2022-12-31T02:47:01.737Z,13.60
2022-12-31T02:52:41.119Z,12.58
2022-12-31T02:58:14.553Z,13.64
2022-12-31T03:03:38.330Z,14.18
2022-12-31T03:09:16.256Z,13.96
2022-12-31T03:14:39.825Z,12.71
2022-12-31T03:20:20.913Z,13.69
2022-12-31T03:25:46.063Z,14.38
2022-12-31T03:31:10.113Z,14.64
2022-12-31T03:36:34.352Z,14.84
2022-12-31T03:41:59.547Z,13.41
2022-12-31T03:47:23.467Z,13.28
2022-12-31T03:52:47.364Z,14.38
2022-12-31T03:58:11.452Z,14.87
2022-12-31T04:03:35.693Z,14.76
2022-12-31T04:09:01.278Z,13.08
2022-12-31T04:14:25.166Z,12.87
2022-12-31T04:19:48.515Z,13.98
2022-12-31T04:25:13.155Z,14.45
2022-12-31T04:30:37.802Z,14.77
2022-12-31T04:36:05.174Z,14.66
2022-12-31T04:41:29.604Z,13.11
2022-12-31T04:46:53.653Z,13.71
2022-12-31T04:52:17.408Z,14.62
2022-12-31T04:57:42.516Z,15.03
2022-12-31T05:03:06.347Z,15.28
2022-12-31T05:08:30.276Z,14.80
2022-12-31T05:13:54.114Z,13.20
2022-12-31T05:19:17.794Z,13.45
2022-12-31T05:24:41.122Z,14.67
2022-12-31T05:30:04.626Z,15.28
2022-12-31T05:35:29.384Z,15.03
2022-12-31T05:41:06.515Z,13.40
2022-12-31T05:46:30.397Z,13.70
2022-12-31T05:51:54.624Z,14.88
2022-12-31T05:57:18.346Z,15.41
2022-12-31T06:02:41.933Z,15.75
2022-12-31T06:08:06.296Z,15.30
2022-12-31T06:13:30.567Z,13.68
2022-12-31T06:18:54.819Z,13.13
2022-12-31T06:24:19.401Z,14.70
2022-12-31T06:29:43.131Z,15.52
2022-12-31T06:35:07.093Z,15.99
2022-12-31T06:40:31.095Z,14.97
2022-12-31T06:45:54.770Z,13.44
2022-12-31T06:51:19.730Z,12.57
2022-12-31T06:56:45.117Z,13.10
2022-12-31T07:02:24.114Z,14.92
2022-12-31T07:07:59.791Z,16.09
2022-12-31T07:13:27.122Z,16.80
2022-12-31T07:18:56.740Z,16.21
2022-12-31T07:24:21.238Z,14.29
2022-12-31T07:29:46.127Z,13.47
2022-12-31T07:35:22.040Z,14.88
2022-12-31T07:41:09.455Z,15.75
2022-12-31T07:46:53.263Z,16.11
2022-12-31T07:52:17.509Z,16.32
2022-12-31T07:57:48.907Z,16.46
2022-12-31T08:03:16.913Z,16.63
2022-12-31T08:08:47.751Z,15.79
2022-12-31T08:14:12.334Z,15.47
2022-12-31T08:19:36.651Z,16.43
2022-12-31T08:25:06.608Z,16.64
2022-12-31T08:30:40.905Z,15.28
2022-12-31T08:36:10.428Z,16.01
2022-12-31T08:41:43.187Z,16.86
2022-12-31T08:47:34.151Z,15.81
2022-12-31T08:53:01.466Z,15.82
2022-12-31T08:58:36.251Z,16.92
2022-12-31T09:04:15.843Z,16.37
2022-12-31T09:09:40.299Z,15.67
2022-12-31T09:15:08.316Z,17.02
2022-12-31T09:20:43.052Z,16.90
2022-12-31T09:26:43.909Z,15.87
2022-12-31T09:32:14.069Z,17.08
2022-12-31T09:37:48.034Z,17.22
2022-12-31T09:43:17.268Z,16.13
2022-12-31T09:48:44.408Z,17.30
2022-12-31T09:54:20.859Z,17.24
2022-12-31T10:00:04.451Z,16.34
2022-12-31T10:05:45.722Z,17.55
2022-12-31T10:11:29.015Z,17.30
2022-12-31T10:17:02.402Z,16.48
2022-12-31T10:22:32.531Z,17.66
2022-12-31T10:28:02.032Z,16.98
2022-12-31T10:33:42.487Z,16.70
2022-12-31T10:39:14.511Z,17.99
2022-12-31T10:44:47.543Z,16.92
2022-12-31T10:50:15.480Z,16.85
2022-12-31T11:02:14.825Z,16.83
2022-12-31T11:07:59.679Z,17.30
2022-12-31T11:13:42.084Z,17.97
2022-12-31T11:19:32.214Z,17.07
2022-12-31T11:25:18.902Z,16.65
2022-12-31T11:30:52.065Z,17.18
2022-12-31T11:36:19.725Z,18.03
2022-12-31T11:41:47.513Z,17.33
2022-12-31T11:47:25.094Z,17.00
2022-12-31T11:53:08.461Z,16.88
2022-12-31T11:58:33.271Z,17.44
2022-12-31T12:03:56.866Z,18.62
2022-12-31T12:09:30.330Z,17.99
2022-12-31T12:14:55.314Z,17.59
2022-12-31T12:20:20.415Z,17.41
2022-12-31T12:25:44.827Z,17.29
2022-12-31T12:31:08.730Z,17.17
2022-12-31T12:36:32.318Z,17.04
2022-12-31T12:42:04.282Z,16.92
2022-12-31T12:47:28.357Z,16.81
2022-12-31T12:53:11.192Z,17.00
2022-12-31T12:58:58.607Z,18.29
2022-12-31T13:04:37.921Z,17.51
2022-12-31T13:10:20.778Z,16.96
2022-12-31T13:15:51.064Z,17.27
2022-12-31T13:21:22.187Z,18.29
2022-12-31T13:27:01.314Z,17.41
2022-12-31T13:32:27.006Z,16.86
2022-12-31T13:37:51.565Z,17.95
2022-12-31T13:43:20.650Z,18.18
2022-12-31T13:48:46.535Z,17.16
2022-12-31T13:54:23.338Z,17.30
2022-12-31T13:59:47.941Z,18.25
2022-12-31T14:05:20.871Z,17.30
2022-12-31T14:10:45.057Z,17.15
2022-12-31T14:16:23.998Z,18.37
2022-12-31T14:22:11.132Z,17.57
2022-12-31T14:27:38.823Z,16.99
2022-12-31T14:33:18.469Z,18.27
2022-12-31T14:38:55.376Z,17.80
2022-12-31T14:44:22.861Z,16.98
2022-12-31T14:50:02.368Z,17.96
2022-12-31T14:55:31.099Z,18.14
2022-12-31T15:00:57.921Z,17.11
2022-12-31T15:06:25.385Z,17.37
2022-12-31T15:11:58.617Z,18.29
2022-12-31T15:17:33.444Z,17.28
2022-12-31T15:22:57.187Z,17.10
2022-12-31T15:28:32.896Z,18.35
2022-12-31T15:33:58.168Z,17.54
2022-12-31T15:39:33.884Z,16.86
2022-12-31T15:45:03.340Z,18.06
2022-12-31T15:50:27.399Z,17.88
2022-12-31T15:55:51.746Z,16.97
2022-12-31T16:01:24.632Z,17.34
2022-12-31T16:06:51.335Z,18.29
2022-12-31T16:12:18.693Z,17.29
2022-12-31T16:17:42.671Z,16.95
2022-12-31T16:23:13.683Z,18.33
2022-12-31T16:28:37.575Z,17.68
2022-12-31T16:34:04.848Z,16.83
2022-12-31T16:39:33.462Z,17.69
2022-12-31T16:44:59.948Z,18.25
2022-12-31T16:50:25.743Z,17.18
2022-12-31T16:56:01.757Z,16.72
2022-12-31T17:01:27.209Z,18.10
2022-12-31T17:06:51.722Z,17.98
2022-12-31T17:12:17.922Z,16.91
2022-12-31T17:17:41.931Z,17.17
2022-12-31T17:23:07.145Z,18.10
2022-12-31T17:28:33.631Z,17.14
2022-12-31T17:34:07.737Z,16.74
2022-12-31T17:40:49.726Z,18.17
2022-12-31T17:45:47.597Z,17.65
2022-12-31T17:51:13.147Z,16.71
2022-12-31T17:56:37.201Z,17.48
2022-12-31T18:02:02.309Z,18.07
2022-12-31T18:07:27.998Z,16.99
2022-12-31T18:12:53.487Z,17.19
2022-12-31T18:18:25.254Z,18.20
2022-12-31T18:23:51.767Z,17.14
2022-12-31T18:29:17.816Z,16.59
2022-12-31T18:34:43.229Z,17.99
2022-12-31T18:40:08.014Z,17.66
2022-12-31T18:45:32.177Z,16.75
2022-12-31T18:50:57.405Z,17.46
2022-12-31T18:56:23.750Z,18.31
2022-12-31T19:01:48.849Z,17.24
2022-12-31T19:07:13.846Z,16.70
2022-12-31T19:12:38.040Z,18.02
2022-12-31T19:18:02.235Z,17.86
2022-12-31T19:23:27.255Z,16.96
2022-12-31T19:28:52.276Z,16.73
2022-12-31T19:34:16.410Z,17.96
2022-12-31T19:39:40.795Z,17.36
2022-12-31T19:45:07.655Z,16.69
2022-12-31T19:50:32.002Z,16.75
2022-12-31T19:55:57.323Z,18.10
2022-12-31T20:01:23.165Z,17.39
2022-12-31T20:06:47.825Z,16.70
2022-12-31T20:12:12.864Z,16.33
2022-12-31T20:17:37.986Z,17.15
2022-12-31T20:23:02.327Z,18.24
2022-12-31T20:28:27.592Z,17.27
2022-12-31T20:33:52.033Z,16.63
2022-12-31T20:39:16.507Z,16.27
2022-12-31T20:44:41.578Z,16.07
2022-12-31T20:50:11.860Z,15.95
2022-12-31T20:55:38.814Z,16.92
2022-12-31T21:01:03.621Z,17.99
2022-12-31T21:06:28.752Z,17.09
2022-12-31T21:12:10.479Z,16.55
2022-12-31T21:17:35.076Z,16.29
2022-12-31T21:22:58.997Z,16.12
2022-12-31T21:28:23.097Z,16.07
2022-12-31T21:33:49.037Z,16.07
2022-12-31T21:39:13.757Z,16.14
2022-12-31T21:44:38.120Z,16.22
2022-12-31T21:50:03.568Z,16.29
2022-12-31T21:55:44.890Z,16.34
2022-12-31T22:01:26.727Z,16.29
2022-12-31T22:06:52.135Z,16.29
2022-12-31T22:12:16.641Z,16.29
2022-12-31T22:17:41.150Z,16.27
2022-12-31T22:23:05.791Z,16.33
2022-12-31T22:28:39.055Z,16.35
2022-12-31T22:34:03.662Z,16.38
2022-12-31T22:39:44.067Z,16.39
2022-12-31T22:45:09.653Z,16.37
2022-12-31T22:50:35.212Z,16.38
2022-12-31T22:56:00.362Z,16.40
2022-12-31T23:01:25.368Z,16.38
2022-12-31T23:06:49.693Z,16.38
2022-12-31T23:12:14.690Z,16.41
2022-12-31T23:17:55.902Z,16.38
2022-12-31T23:23:20.742Z,16.39
2022-12-31T23:28:45.762Z,16.47
2022-12-31T23:34:11.050Z,16.54
2022-12-31T23:39:35.501Z,16.61
2022-12-31T23:45:00.477Z,16.66
2022-12-31T23:50:52.468Z,16.73
2022-12-31T23:56:23.366Z,16.76
